Time;durP1;ratioP1;P1;durP2;ratioP2;P2;SDS_P1;SDS_P2;PMS_P1;PMS_P2;Temp;Humidity;BMP_temperature;BMP_pressure;BME280_temperature;BME280_humidity;BME280_pressure;Samples;Min_cycle;Max_cycle;Signal;HPM_P1;HPM_P2
2022/05/09 00:00:06;;;;;;;11.00;4.82;;;12.00;41.60;;;;;;5053096;28;20892;-76
2022/05/09 00:02:32;;;;;;;11.60;4.90;;;12.00;41.30;;;;;;5056840;28;20392;-74
2022/05/09 00:04:57;;;;;;;9.60;4.70;;;12.00;41.40;;;;;;5059962;28;20766;-78
2022/05/09 00:07:23;;;;;;;10.00;5.00;;;11.90;41.10;;;;;;5059705;28;20419;-77
2022/05/09 00:09:49;;;;;;;10.37;5.00;;;11.90;41.50;;;;;;5067482;28;20427;-75
2022/05/09 00:12:14;;;;;;;10.43;4.80;;;11.90;41.30;;;;;;5053024;28;20783;-75
2022/05/09 00:14:40;;;;;;;13.10;5.03;;;11.70;43.10;;;;;;5054115;28;20935;-75
2022/05/09 00:17:05;;;;;;;14.00;4.93;;;11.60;43.20;;;;;;5057129;28;20405;-76
2022/05/09 00:19:31;;;;;;;10.47;4.90;;;11.70;42.70;;;;;;5059956;28;20377;-75
2022/05/09 00:21:57;;;;;;;8.40;5.43;;;11.60;42.60;;;;;;5058772;28;20439;-75
2022/05/09 00:24:23;;;;;;;10.47;5.43;;;11.60;43.30;;;;;;5058669;28;20385;-75
2022/05/09 00:26:50;;;;;;;11.80;5.18;;;11.60;42.90;;;;;;5054711;28;20573;-75
2022/05/09 00:29:17;;;;;;;10.23;4.72;;;11.50;43.90;;;;;;5052018;28;20401;-75
2022/05/09 00:31:46;;;;;;;14.27;5.30;;;11.50;44.50;;;;;;5054737;28;20392;-76
2022/05/09 00:34:14;;;;;;;11.95;5.30;;;11.50;43.90;;;;;;5053792;28;20405;-76
2022/05/09 00:36:40;;;;;;;9.03;4.50;;;11.60;42.20;;;;;;5053972;28;20412;-76
2022/05/09 00:39:06;;;;;;;12.20;5.40;;;11.60;42.30;;;;;;5054977;28;20819;-76
2022/05/09 00:41:34;;;;;;;17.00;5.28;;;11.60;42.30;;;;;;5054200;28;20846;-75
2022/05/09 00:44:03;;;;;;;9.65;5.00;;;11.40;42.80;;;;;;5052823;28;20415;-76
2022/05/09 00:46:29;;;;;;;11.60;5.20;;;11.30;43.90;;;;;;5053828;28;20428;-76
2022/05/09 00:48:58;;;;;;;10.30;5.13;;;11.40;43.80;;;;;;5053169;28;20393;-77
2022/05/09 00:51:27;;;;;;;9.63;5.30;;;11.30;44.00;;;;;;5052954;28;20381;-76
2022/05/09 00:53:56;;;;;;;10.98;5.43;;;11.30;44.10;;;;;;5053250;28;20778;-75
2022/05/09 00:56:46;;;;;;;11.00;5.40;;;11.00;45.90;;;;;;5051482;28;20409;-76
2022/05/09 00:59:15;;;;;;;9.50;5.30;;;10.80;48.70;;;;;;5054682;28;20466;-78
2022/05/09 01:01:41;;;;;;;14.18;5.63;;;11.10;45.60;;;;;;5055522;28;20374;-77
2022/05/09 01:04:13;;;;;;;7.43;4.90;;;11.20;44.10;;;;;;5054197;28;20732;-75
2022/05/09 01:06:40;;;;;;;13.60;5.43;;;11.10;46.10;;;;;;5054585;28;20377;-75
2022/05/09 01:09:06;;;;;;;8.10;5.10;;;11.00;46.70;;;;;;5054415;28;20780;-76
2022/05/09 01:11:33;;;;;;;9.38;5.60;;;10.80;48.90;;;;;;5052907;28;20381;-76
2022/05/09 01:14:21;;;;;;;8.70;5.70;;;10.70;49.90;;;;;;5052496;28;20393;-76
2022/05/09 01:16:47;;;;;;;11.25;6.20;;;10.80;50.50;;;;;;5052446;28;20405;-76
2022/05/09 01:19:31;;;;;;;11.23;6.05;;;10.70;50.90;;;;;;5052483;28;20377;-76
2022/05/09 01:21:59;;;;;;;9.82;5.50;;;10.80;51.40;;;;;;5052213;28;20370;-76
2022/05/09 01:24:25;;;;;;;14.20;5.90;;;11.10;49.80;;;;;;5052458;28;20378;-76
2022/05/09 01:26:52;;;;;;;10.93;5.45;;;11.30;47.80;;;;;;5052244;28;20754;-76
2022/05/09 01:29:40;;;;;;;11.20;5.23;;;11.30;48.20;;;;;;5052592;28;20479;-76
2022/05/09 01:32:10;;;;;;;9.18;5.57;;;11.30;47.20;;;;;;5051797;28;20393;-76
2022/05/09 01:34:38;;;;;;;8.98;5.60;;;11.10;48.70;;;;;;5051007;28;20823;-76
2022/05/09 01:37:07;;;;;;;7.65;5.65;;;11.00;49.20;;;;;;5051764;28;20441;-77
2022/05/09 01:39:33;;;;;;;15.40;6.03;;;10.70;52.10;;;;;;5051956;28;20385;-76
2022/05/09 01:42:04;;;;;;;11.63;6.43;;;10.70;53.10;;;;;;5051680;28;20731;-76
2022/05/09 01:44:30;;;;;;;11.85;6.35;;;10.80;52.40;;;;;;5051523;28;20392;-76
2022/05/09 01:49:40;;;;;;;13.23;6.30;;;10.80;52.40;;;;;;5051931;28;20392;-76
2022/05/09 01:52:08;;;;;;;11.40;6.47;;;10.80;51.80;;;;;;5051348;28;20390;-76
2022/05/09 01:57:04;;;;;;;13.18;6.35;;;10.90;49.90;;;;;;5074040;28;20427;-71
2022/05/09 01:59:31;;;;;;;12.50;5.40;;;10.90;48.60;;;;;;5074337;28;20408;-70
2022/05/09 02:02:01;;;;;;;10.63;5.40;;;11.00;47.20;;;;;;5072847;28;20375;-73
2022/05/09 02:04:26;;;;;;;10.10;5.65;;;11.00;46.80;;;;;;5073300;28;20467;-72
2022/05/09 02:06:52;;;;;;;13.63;6.15;;;10.90;46.90;;;;;;5073656;28;20411;-72
2022/05/09 02:09:19;;;;;;;11.20;5.88;;;10.60;49.40;;;;;;5075078;28;20388;-72
2022/05/09 02:11:45;;;;;;;11.23;6.88;;;10.30;52.00;;;;;;5077027;28;20842;-71
2022/05/09 02:14:11;;;;;;;12.00;6.50;;;10.30;53.20;;;;;;5076869;28;20486;-72
2022/05/09 02:16:37;;;;;;;11.25;5.93;;;10.30;52.70;;;;;;5074273;28;20502;-71
2022/05/09 02:19:06;;;;;;;10.20;5.50;;;10.30;52.30;;;;;;5075204;28;20395;-71
2022/05/09 02:21:33;;;;;;;9.43;5.03;;;10.20;53.40;;;;;;5074164;28;20422;-72
2022/05/09 02:23:59;;;;;;;11.35;5.70;;;10.20;52.90;;;;;;5071193;28;20388;-71
2022/05/09 02:26:24;;;;;;;9.60;6.00;;;10.20;51.50;;;;;;5071549;28;20960;-72
2022/05/09 02:28:50;;;;;;;14.60;5.33;;;10.20;51.70;;;;;;5071652;28;20386;-72
2022/05/09 02:31:16;;;;;;;14.38;6.07;;;10.30;50.20;;;;;;5070923;28;20459;-72
2022/05/09 02:33:42;;;;;;;9.25;5.20;;;10.40;48.50;;;;;;5071567;28;20418;-71
2022/05/09 02:36:09;;;;;;;15.35;5.53;;;10.40;48.50;;;;;;5069502;28;20412;-72
2022/05/09 02:38:35;;;;;;;13.90;5.90;;;10.50;47.50;;;;;;5070976;28;20382;-72
2022/05/09 02:41:01;;;;;;;10.10;5.80;;;10.50;48.10;;;;;;5070526;28;20868;-72
2022/05/09 02:43:27;;;;;;;15.53;5.80;;;10.40;47.80;;;;;;5070758;28;20379;-72
2022/05/09 02:45:53;;;;;;;11.10;5.00;;;10.30;48.00;;;;;;5070529;28;20391;-71
2022/05/09 02:48:18;;;;;;;8.97;5.17;;;10.30;48.50;;;;;;5070730;28;20387;-71
2022/05/09 02:50:44;;;;;;;10.20;5.05;;;10.10;48.80;;;;;;5070070;28;20940;-73
2022/05/09 02:53:10;;;;;;;14.50;5.57;;;10.00;48.80;;;;;;5070089;28;20384;-70
2022/05/09 02:55:36;;;;;;;15.30;6.28;;;10.00;48.90;;;;;;5069196;28;20398;-71
2022/05/09 02:58:03;;;;;;;11.10;5.47;;;10.00;49.80;;;;;;5070769;28;20400;-73
2022/05/09 03:00:30;;;;;;;10.70;5.50;;;9.90;50.80;;;;;;5070835;28;20428;-71
2022/05/09 03:05:42;;;;;;;14.60;5.77;;;9.90;50.30;;;;;;5071108;28;20391;-73
2022/05/09 03:08:10;;;;;;;13.02;5.53;;;9.90;51.30;;;;;;5070651;28;20528;-71
2022/05/09 03:10:36;;;;;;;10.32;5.20;;;9.90;50.90;;;;;;5070564;28;20383;-69
2022/05/09 03:13:05;;;;;;;9.82;5.60;;;9.90;51.50;;;;;;5070535;28;20437;-71
2022/05/09 03:15:37;;;;;;;8.90;5.20;;;9.90;51.70;;;;;;5071055;28;20380;-72
2022/05/09 03:18:03;;;;;;;13.25;5.20;;;9.90;52.10;;;;;;5070845;28;20426;-71
2022/05/09 03:20:29;;;;;;;12.23;6.00;;;9.80;51.50;;;;;;5070475;28;20455;-71
2022/05/09 03:22:55;;;;;;;10.25;5.65;;;9.90;50.90;;;;;;5070206;28;20860;-71
2022/05/09 03:25:20;;;;;;;11.30;5.40;;;9.90;49.80;;;;;;5053587;28;20386;-71
2022/05/09 03:27:46;;;;;;;10.80;5.80;;;10.00;49.60;;;;;;5050415;28;20386;-69
2022/05/09 03:30:14;;;;;;;14.68;6.43;;;10.10;49.10;;;;;;5050171;28;20396;-70
2022/05/09 03:32:39;;;;;;;13.80;6.00;;;10.00;50.80;;;;;;5050222;28;20819;-71
2022/05/09 03:35:07;;;;;;;11.37;5.43;;;10.10;51.10;;;;;;5050422;28;20386;-71
2022/05/09 03:37:32;;;;;;;9.15;5.00;;;10.20;50.20;;;;;;5050516;28;20898;-70
2022/05/09 03:39:58;;;;;;;11.27;5.40;;;10.20;50.30;;;;;;5050379;28;20417;-72
2022/05/09 03:42:23;;;;;;;9.35;5.93;;;10.30;49.20;;;;;;5050341;28;20378;-71
2022/05/09 03:44:49;;;;;;;11.10;5.45;;;10.20;49.00;;;;;;5050023;28;20416;-71
2022/05/09 03:47:15;;;;;;;13.60;6.13;;;10.20;48.80;;;;;;5050274;28;20801;-69
2022/05/09 03:49:41;;;;;;;10.15;5.35;;;10.30;48.50;;;;;;5050324;28;20416;-70
2022/05/09 03:52:06;;;;;;;10.00;5.30;;;10.40;47.90;;;;;;5049953;28;20394;-71
2022/05/09 03:54:33;;;;;;;11.73;5.93;;;10.50;47.50;;;;;;5050149;28;20912;-71
2022/05/09 03:56:58;;;;;;;12.10;5.45;;;10.40;46.30;;;;;;5049580;28;20894;-72
2022/05/09 03:59:24;;;;;;;10.88;6.15;;;10.30;48.40;;;;;;5049895;28;20396;-71
2022/05/09 04:01:50;;;;;;;14.20;5.85;;;10.30;47.80;;;;;;5050091;28;20370;-71
2022/05/09 04:04:16;;;;;;;12.20;5.50;;;10.40;47.70;;;;;;5053602;28;20461;-71
2022/05/09 04:06:42;;;;;;;15.68;5.85;;;10.40;47.90;;;;;;5053895;28;20381;-71
2022/05/09 04:09:07;;;;;;;11.05;6.20;;;10.30;48.70;;;;;;5054443;28;20386;-69
2022/05/09 04:11:33;;;;;;;15.67;6.00;;;10.40;48.60;;;;;;5054749;28;20411;-71
2022/05/09 04:13:58;;;;;;;15.90;6.90;;;10.50;46.80;;;;;;5054222;28;20389;-71
2022/05/09 04:19:09;;;;;;;12.18;6.00;;;10.70;46.10;;;;;;5054014;28;20753;-70
2022/05/09 04:21:34;;;;;;;8.50;5.72;;;10.70;44.60;;;;;;5053795;28;20382;-71
2022/05/09 04:24:02;;;;;;;11.38;5.80;;;10.50;46.00;;;;;;5058849;28;20392;-71
2022/05/09 04:26:31;;;;;;;12.98;5.72;;;10.50;47.20;;;;;;5071857;28;20391;-70
2022/05/09 04:28:57;;;;;;;17.50;6.72;;;10.60;46.80;;;;;;5072925;28;20483;-71
2022/05/09 04:31:23;;;;;;;12.50;6.05;;;10.70;46.40;;;;;;5072750;28;20820;-71
2022/05/09 04:33:49;;;;;;;17.95;5.95;;;10.70;46.00;;;;;;5073024;28;20422;-70
2022/05/09 04:36:15;;;;;;;14.53;6.30;;;10.70;46.10;;;;;;5072755;28;20390;-72
2022/05/09 04:38:42;;;;;;;13.10;6.20;;;10.70;46.00;;;;;;5072987;28;20380;-71
2022/05/09 04:41:10;;;;;;;10.68;6.68;;;10.70;45.60;;;;;;5071179;28;20791;-72
2022/05/09 04:43:36;;;;;;;17.33;7.90;;;10.70;46.10;;;;;;5072859;28;20868;-72
2022/05/09 04:46:04;;;;;;;15.80;7.20;;;11.00;44.90;;;;;;5072453;28;20392;-70
2022/05/09 04:48:30;;;;;;;16.52;6.90;;;11.00;46.00;;;;;;5072675;28;20380;-70
2022/05/09 04:50:56;;;;;;;14.38;6.82;;;11.00;45.30;;;;;;5072571;28;20411;-71
2022/05/09 04:53:22;;;;;;;22.17;7.88;;;11.10;44.90;;;;;;5073232;28;20384;-71
2022/05/09 04:55:47;;;;;;;15.80;6.63;;;11.30;44.70;;;;;;5072086;28;20929;-72
2022/05/09 04:58:15;;;;;;;15.73;6.85;;;11.20;44.70;;;;;;5072660;28;20872;-70
2022/05/09 05:00:41;;;;;;;17.23;7.30;;;11.30;45.20;;;;;;5072524;28;20407;-69
2022/05/09 05:03:07;;;;;;;16.33;6.83;;;11.30;45.60;;;;;;5072111;28;20433;-70
2022/05/09 05:05:33;;;;;;;13.60;6.30;;;11.30;45.20;;;;;;5072426;28;20380;-70
2022/05/09 05:08:00;;;;;;;14.70;5.38;;;11.30;44.00;;;;;;5072319;28;20919;-71
2022/05/09 05:10:26;;;;;;;17.33;5.10;;;11.70;41.50;;;;;;5072200;28;20419;-71
2022/05/09 05:12:52;;;;;;;10.68;5.05;;;11.80;39.50;;;;;;5071798;28;20383;-71
2022/05/09 05:15:18;;;;;;;6.82;4.93;;;11.70;40.80;;;;;;5071755;28;20437;-71
2022/05/09 05:17:43;;;;;;;11.10;5.80;;;11.70;40.20;;;;;;5072410;28;20494;-71
2022/05/09 05:20:12;;;;;;;11.00;5.27;;;11.80;39.60;;;;;;5072291;28;20406;-71
2022/05/09 05:22:40;;;;;;;12.52;5.80;;;11.90;39.20;;;;;;5054293;28;20395;-71
2022/05/09 05:25:07;;;;;;;10.25;4.80;;;12.10;37.90;;;;;;5056023;28;20390;-71
2022/05/09 05:27:33;;;;;;;16.05;6.00;;;12.20;36.70;;;;;;5051182;28;20399;-71
2022/05/09 05:29:59;;;;;;;11.40;5.00;;;12.30;36.50;;;;;;5052063;28;20381;-71
2022/05/09 05:32:28;;;;;;;14.30;6.38;;;12.40;35.20;;;;;;5052253;28;20409;-71
2022/05/09 05:34:54;;;;;;;15.15;5.82;;;12.40;35.80;;;;;;5052458;28;20766;-71
2022/05/09 05:37:20;;;;;;;11.40;5.22;;;12.50;36.10;;;;;;5052814;28;20420;-71
2022/05/09 05:39:46;;;;;;;13.70;4.90;;;12.60;35.50;;;;;;5054976;28;20796;-70
2022/05/09 05:42:15;;;;;;;14.73;5.20;;;12.80;35.90;;;;;;5052297;28;20382;-71
2022/05/09 05:44:41;;;;;;;10.88;4.38;;;12.80;35.70;;;;;;5053664;28;20382;-72
2022/05/09 05:47:09;;;;;;;8.43;4.75;;;13.10;36.10;;;;;;5053196;28;20396;-71
2022/05/09 05:49:36;;;;;;;10.68;5.10;;;13.20;34.20;;;;;;5052532;28;20758;-72
2022/05/09 05:52:03;;;;;;;11.05;5.30;;;13.30;34.40;;;;;;5050914;28;20885;-71
2022/05/09 05:54:36;;;;;;;13.82;5.40;;;13.30;33.90;;;;;;5051120;28;20393;-71
2022/05/09 05:57:03;;;;;;;12.07;5.78;;;13.40;34.10;;;;;;5050626;28;20462;-71
2022/05/09 05:59:29;;;;;;;11.27;5.63;;;13.40;34.20;;;;;;5050797;28;20386;-70
2022/05/09 06:01:55;;;;;;;12.23;5.50;;;13.50;33.90;;;;;;5050859;28;20384;-70
2022/05/09 06:04:21;;;;;;;14.10;5.73;;;13.50;33.70;;;;;;5051036;28;20385;-72
2022/05/09 06:06:46;;;;;;;17.63;5.50;;;13.60;32.90;;;;;;5050988;28;20381;-72
2022/05/09 06:09:12;;;;;;;13.77;5.40;;;13.70;32.20;;;;;;5050584;28;20643;-74
2022/05/09 06:11:42;;;;;;;13.90;6.50;;;13.80;32.20;;;;;;5062582;28;20407;-72
2022/05/09 06:14:12;;;;;;;14.65;6.85;;;13.90;31.80;;;;;;5064891;28;20379;-71
2022/05/09 06:16:37;;;;;;;18.73;6.10;;;14.10;32.20;;;;;;5069852;28;20415;-70
2022/05/09 06:19:04;;;;;;;8.60;5.20;;;14.20;31.30;;;;;;5068653;28;20945;-70
2022/05/09 06:21:33;;;;;;;10.55;4.90;;;14.30;31.00;;;;;;5066961;28;20437;-70
2022/05/09 06:23:59;;;;;;;12.15;5.63;;;14.40;31.10;;;;;;5066661;28;20391;-70
2022/05/09 06:26:25;;;;;;;14.70;5.40;;;14.60;30.30;;;;;;5067451;28;20776;-71
2022/05/09 06:28:51;;;;;;;13.35;5.50;;;14.70;29.40;;;;;;5069790;28;20411;-70
2022/05/09 06:31:18;;;;;;;10.30;5.22;;;14.80;28.80;;;;;;5070192;28;20957;-70
2022/05/09 06:33:43;;;;;;;12.07;6.60;;;15.00;28.60;;;;;;5065292;28;20400;-70
2022/05/09 06:36:09;;;;;;;11.30;5.20;;;15.20;28.20;;;;;;5068250;28;20826;-72
2022/05/09 06:38:35;;;;;;;15.27;5.87;;;15.20;27.20;;;;;;5069619;28;20420;-70
2022/05/09 06:41:01;;;;;;;8.67;5.20;;;15.30;27.00;;;;;;5067731;28;20388;-72
2022/05/09 06:43:26;;;;;;;12.45;5.30;;;15.40;26.60;;;;;;5056382;28;20376;-71
2022/05/09 06:45:52;;;;;;;8.93;4.90;;;15.50;26.90;;;;;;5070372;28;20462;-71
2022/05/09 06:48:18;;;;;;;8.50;4.47;;;15.70;26.20;;;;;;5069409;28;20810;-72
2022/05/09 06:50:44;;;;;;;14.57;5.30;;;15.90;26.40;;;;;;5070443;28;20395;-70
2022/05/09 06:53:11;;;;;;;11.85;4.82;;;15.80;24.90;;;;;;5066191;28;20445;-71
2022/05/09 06:55:37;;;;;;;9.45;4.88;;;15.90;24.70;;;;;;5068835;28;20418;-72
2022/05/09 06:58:11;;;;;;;10.98;4.75;;;15.90;25.00;;;;;;5069775;28;20494;-73
2022/05/09 07:00:37;;;;;;;12.25;5.15;;;16.00;25.80;;;;;;5069531;28;20392;-72
2022/05/09 07:03:03;;;;;;;12.37;5.20;;;15.90;25.30;;;;;;5069810;28;20753;-73
2022/05/09 07:05:29;;;;;;;11.02;5.60;;;16.00;24.90;;;;;;5067440;28;20395;-75
2022/05/09 07:07:55;;;;;;;11.13;5.32;;;16.00;25.50;;;;;;5068354;28;20391;-72
2022/05/09 07:10:20;;;;;;;16.90;5.50;;;16.00;25.90;;;;;;5070609;28;20383;-72
2022/05/09 07:12:51;;;;;;;14.95;6.20;;;16.00;25.70;;;;;;5070546;28;20388;-72
2022/05/09 07:15:25;;;;;;;10.25;5.10;;;16.10;26.20;;;;;;5070687;28;20383;-72
2022/05/09 07:17:52;;;;;;;11.68;5.30;;;16.30;25.30;;;;;;5070317;28;20461;-72
2022/05/09 07:20:20;;;;;;;14.93;5.90;;;16.30;24.50;;;;;;5070820;28;20883;-72
2022/05/09 07:22:47;;;;;;;13.23;5.60;;;16.40;24.60;;;;;;5070228;28;20383;-71
2022/05/09 07:25:15;;;;;;;14.00;5.28;;;16.50;24.40;;;;;;5066555;28;20468;-71
2022/05/09 07:27:44;;;;;;;13.43;5.50;;;16.70;24.90;;;;;;5065161;28;20765;-71
2022/05/09 07:30:14;;;;;;;22.38;7.03;;;16.90;23.40;;;;;;5067558;28;20422;-71
2022/05/09 07:32:40;;;;;;;10.25;4.82;;;17.20;23.00;;;;;;5064458;28;20395;-71
2022/05/09 07:35:10;;;;;;;15.27;5.05;;;17.10;23.20;;;;;;5062549;28;20750;-72
2022/05/09 07:37:39;;;;;;;13.60;5.38;;;17.40;23.20;;;;;;5072451;28;20887;-72
2022/05/09 07:40:05;;;;;;;18.52;5.22;;;17.30;22.50;;;;;;5071157;28;21221;-71
2022/05/09 07:42:34;;;;;;;10.65;4.97;;;17.30;21.90;;;;;;5071687;28;20601;-72
2022/05/09 07:45:00;;;;;;;12.57;4.80;;;17.30;21.50;;;;;;5073036;28;20777;-72
2022/05/09 07:47:26;;;;;;;14.35;5.07;;;17.40;21.60;;;;;;5073142;28;20396;-71
2022/05/09 07:49:52;;;;;;;11.90;4.80;;;17.60;21.40;;;;;;5071660;28;20457;-72
2022/05/09 07:52:17;;;;;;;9.85;5.07;;;17.60;21.10;;;;;;5070039;28;20471;-71
2022/05/09 07:54:43;;;;;;;12.60;5.00;;;17.80;21.60;;;;;;5070575;28;20490;-73
2022/05/09 07:57:09;;;;;;;15.57;4.70;;;17.70;21.00;;;;;;5077671;22;20436;-77
2022/05/09 07:59:35;;;;;;;12.38;5.18;;;17.80;21.60;;;;;;5056386;28;20923;-78
2022/05/09 08:02:01;;;;;;;15.00;4.80;;;17.90;22.40;;;;;;5056520;28;20408;-77
2022/05/09 08:04:26;;;;;;;11.97;4.83;;;18.20;20.80;;;;;;5056600;28;20405;-76
2022/05/09 08:06:52;;;;;;;10.70;4.73;;;18.30;20.20;;;;;;5056085;28;20397;-78
2022/05/09 08:09:18;;;;;;;9.35;5.00;;;18.40;20.10;;;;;;5055467;28;20412;-73
2022/05/09 08:11:44;;;;;;;14.10;5.28;;;18.40;20.00;;;;;;5053295;28;20794;-73
2022/05/09 08:14:11;;;;;;;8.98;4.97;;;18.40;19.70;;;;;;5050730;28;20383;-74
2022/05/09 08:16:38;;;;;;;10.55;5.03;;;18.30;19.70;;;;;;5034090;28;20403;-75
2022/05/09 08:19:04;;;;;;;10.10;4.80;;;18.30;20.30;;;;;;5033797;28;20405;-75
2022/05/09 08:21:29;;;;;;;14.95;4.70;;;18.40;19.70;;;;;;5037257;28;20898;-72
2022/05/09 08:23:55;;;;;;;17.30;4.72;;;18.50;19.50;;;;;;5052755;28;20398;-74
2022/05/09 08:26:21;;;;;;;10.90;5.30;;;18.60;19.80;;;;;;5041326;28;20482;-74
2022/05/09 08:28:54;;;;;;;12.35;4.72;;;18.50;19.80;;;;;;5050346;28;20421;-77
2022/05/09 08:31:21;;;;;;;13.82;4.53;;;18.70;20.20;;;;;;5051071;28;20434;-76
2022/05/09 08:33:49;;;;;;;15.95;5.45;;;18.80;20.40;;;;;;5054093;28;20393;-74
2022/05/09 08:39:00;;;;;;;14.57;5.70;;;18.90;20.20;;;;;;5061301;28;20438;-79
2022/05/09 08:41:30;;;;;;;10.90;6.05;;;19.10;19.70;;;;;;5063089;28;20412;-79
2022/05/09 08:44:20;;;;;;;10.63;5.90;;;19.20;19.60;;;;;;5057593;28;20479;-75
2022/05/09 08:47:13;;;;;;;13.20;5.43;;;19.20;19.80;;;;;;5051383;28;20397;-76
2022/05/09 08:49:50;;;;;;;12.38;6.18;;;19.20;20.40;;;;;;5049561;28;20405;-75
2022/05/09 08:52:42;;;;;;;13.13;5.85;;;19.40;19.90;;;;;;5051555;28;20421;-73
2022/05/09 08:55:10;;;;;;;17.08;6.10;;;19.40;20.00;;;;;;5038820;28;20494;-75
2022/05/09 08:58:03;;;;;;;13.07;5.70;;;19.50;19.60;;;;;;5052442;28;20409;-77
2022/05/09 09:00:31;;;;;;;12.40;5.90;;;19.60;20.00;;;;;;5046038;28;20385;-75
2022/05/09 09:03:00;;;;;;;12.95;5.60;;;19.60;19.80;;;;;;5052146;28;20480;-76
2022/05/09 09:05:32;;;;;;;12.73;6.50;;;19.70;19.80;;;;;;5054827;28;20408;-76
2022/05/09 09:08:20;;;;;;;12.75;6.38;;;19.90;19.90;;;;;;5049245;28;20401;-76
2022/05/09 09:10:58;;;;;;;16.27;6.73;;;20.10;20.50;;;;;;5042259;28;20424;-76
2022/05/09 09:13:53;;;;;;;13.88;7.05;;;20.20;19.30;;;;;;5050296;28;20405;-75
2022/05/09 09:16:22;;;;;;;12.60;6.68;;;20.10;19.70;;;;;;5039048;28;20389;-81
2022/05/09 09:19:11;;;;;;;13.48;6.95;;;20.30;19.70;;;;;;5042018;28;20408;-76
2022/05/09 09:21:48;;;;;;;15.97;7.40;;;20.30;19.00;;;;;;5045660;28;20393;-77
2022/05/09 09:24:48;;;;;;;11.80;6.97;;;20.30;18.60;;;;;;5051711;28;20567;-77
2022/05/09 09:27:49;;;;;;;11.00;6.80;;;20.40;19.60;;;;;;5047036;28;20394;-75
2022/05/09 09:30:18;;;;;;;12.82;6.60;;;20.50;19.00;;;;;;5052969;28;20402;-77
2022/05/09 09:32:51;;;;;;;13.50;7.60;;;20.60;19.30;;;;;;5041527;28;20390;-74
2022/05/09 09:35:32;;;;;;;9.27;6.75;;;20.70;18.50;;;;;;5056305;28;20484;-75
2022/05/09 09:38:21;;;;;;;12.77;7.35;;;20.90;18.60;;;;;;5056802;28;20405;-75
2022/05/09 09:40:47;;;;;;;14.15;8.10;;;20.90;17.80;;;;;;5061845;28;20457;-74
2022/05/09 09:43:13;;;;;;;12.85;6.97;;;20.80;18.70;;;;;;5054879;28;20400;-73
2022/05/09 09:45:49;;;;;;;12.87;7.10;;;20.90;19.10;;;;;;5053045;28;20433;-74
2022/05/09 09:48:20;;;;;;;14.70;7.10;;;21.00;19.10;;;;;;5052616;28;20712;-74
2022/05/09 09:51:00;;;;;;;15.27;8.00;;;21.10;18.30;;;;;;5052568;28;20385;-74
2022/05/09 09:53:51;;;;;;;17.67;8.02;;;21.10;18.30;;;;;;5054165;28;20425;-75
2022/05/09 09:56:23;;;;;;;21.05;8.18;;;21.10;18.30;;;;;;5045787;28;20413;-75
2022/05/09 09:58:50;;;;;;;10.93;7.65;;;21.20;18.70;;;;;;5051435;28;20452;-74
2022/05/09 10:01:28;;;;;;;16.70;7.72;;;21.10;18.10;;;;;;5051298;28;20377;-74
2022/05/09 10:04:06;;;;;;;21.85;7.78;;;21.40;19.00;;;;;;5052609;28;20447;-74
2022/05/09 10:06:33;;;;;;;18.83;8.00;;;21.60;18.90;;;;;;5052407;28;20465;-75
2022/05/09 10:09:03;;;;;;;11.85;7.60;;;21.80;18.20;;;;;;5052225;28;20876;-75
2022/05/09 10:11:30;;;;;;;16.70;7.72;;;21.70;17.80;;;;;;5051902;28;20388;-75
2022/05/09 10:13:59;;;;;;;15.02;8.30;;;21.70;17.70;;;;;;5053330;28;20457;-74
2022/05/09 10:16:38;;;;;;;11.10;7.82;;;21.70;17.60;;;;;;5050886;28;20412;-74
2022/05/09 10:19:09;;;;;;;18.30;8.23;;;21.70;17.50;;;;;;5051632;28;20393;-75
2022/05/09 10:24:47;;;;;;;18.52;8.55;;;21.80;17.40;;;;;;5043036;28;20457;-74
2022/05/09 10:27:25;;;;;;;11.23;7.60;;;22.00;17.30;;;;;;5033186;28;20478;-76
2022/05/09 10:29:55;;;;;;;16.80;7.40;;;22.00;17.80;;;;;;5033136;28;20438;-75
2022/05/09 10:32:57;;;;;;;22.25;7.82;;;22.30;17.30;;;;;;5046725;28;20389;-75
2022/05/09 10:35:36;;;;;;;13.07;8.23;;;22.40;16.70;;;;;;5050949;28;20874;-74
2022/05/09 10:38:20;;;;;;;15.47;8.30;;;22.50;16.60;;;;;;5031865;28;20417;-75
2022/05/09 10:40:48;;;;;;;12.95;7.70;;;22.60;15.90;;;;;;5032267;28;20418;-74
2022/05/09 10:43:18;;;;;;;13.87;7.93;;;22.60;15.80;;;;;;5031717;28;20419;-75
2022/05/09 10:45:48;;;;;;;12.97;8.00;;;22.50;16.40;;;;;;5031944;28;20383;-76
2022/05/09 10:48:38;;;;;;;15.30;8.55;;;22.40;16.40;;;;;;5031910;28;20387;-75
2022/05/09 10:51:28;;;;;;;14.20;8.13;;;22.40;15.90;;;;;;5031650;28;20383;-74
2022/05/09 10:54:15;;;;;;;14.60;8.30;;;22.30;16.50;;;;;;5032592;28;20383;-75
2022/05/09 10:57:04;;;;;;;14.73;8.45;;;22.60;15.90;;;;;;5047127;28;20776;-73
2022/05/09 10:59:33;;;;;;;12.83;7.07;;;22.60;15.90;;;;;;5032618;28;20501;-75
2022/05/09 11:02:12;;;;;;;12.68;7.80;;;22.70;15.70;;;;;;5031819;28;20398;-74
2022/05/09 11:04:38;;;;;;;8.67;7.77;;;22.70;15.90;;;;;;5032022;28;20386;-74
2022/05/09 11:07:16;;;;;;;9.73;7.07;;;22.80;15.30;;;;;;5031395;28;20384;-73
2022/05/09 11:09:55;;;;;;;11.45;7.40;;;23.10;16.10;;;;;;5031983;28;20379;-74
2022/05/09 11:12:54;;;;;;;11.80;7.40;;;23.30;15.20;;;;;;5034197;28;20418;-75
2022/05/09 11:15:29;;;;;;;12.13;7.18;;;23.50;15.80;;;;;;5036456;28;20867;-75
2022/05/09 11:18:17;;;;;;;9.07;5.93;;;23.50;14.10;;;;;;5037926;28;20431;-76
2022/05/09 11:21:12;;;;;;;8.23;6.60;;;23.50;13.50;;;;;;5041560;28;20389;-74
2022/05/09 11:23:48;;;;;;;9.65;6.55;;;23.40;13.60;;;;;;5062690;28;20394;-75
2022/05/09 11:26:47;;;;;;;11.20;7.10;;;23.50;13.90;;;;;;5054413;28;20945;-74
2022/05/09 11:29:35;;;;;;;13.38;8.73;;;23.50;13.80;;;;;;5054080;28;20727;-75
2022/05/09 11:32:36;;;;;;;11.02;7.40;;;23.40;13.90;;;;;;5049863;28;20389;-75
2022/05/09 11:35:08;;;;;;;15.33;6.50;;;23.50;13.70;;;;;;5051319;28;20389;-76
2022/05/09 11:37:54;;;;;;;9.93;6.50;;;23.70;12.70;;;;;;5054998;28;20465;-75
2022/05/09 11:40:37;;;;;;;9.23;5.90;;;23.60;11.90;;;;;;5054177;28;20395;-75
2022/05/09 11:43:29;;;;;;;10.23;7.13;;;23.80;12.70;;;;;;5053437;28;20424;-75
2022/05/09 11:46:28;;;;;;;7.88;6.40;;;23.90;12.80;;;;;;5050718;28;20404;-75
2022/05/09 11:49:27;;;;;;;9.05;6.20;;;23.80;11.10;;;;;;5056112;28;20393;-76
2022/05/09 11:51:56;;;;;;;12.70;7.25;;;23.80;12.40;;;;;;5054343;28;20423;-75
2022/05/09 11:54:33;;;;;;;9.95;6.68;;;23.70;10.20;;;;;;5053505;28;20804;-76
2022/05/09 11:57:09;;;;;;;11.38;6.50;;;23.80;11.50;;;;;;5055233;28;20404;-74
2022/05/09 11:59:37;;;;;;;9.25;6.50;;;23.90;11.20;;;;;;5054637;28;20487;-75
2022/05/09 12:02:06;;;;;;;9.90;7.05;;;24.20;10.40;;;;;;5052060;28;20504;-76
2022/05/09 12:04:39;;;;;;;13.90;8.23;;;24.30;10.80;;;;;;5055872;28;20442;-77
2022/05/09 12:07:23;;;;;;;12.73;7.22;;;24.40;10.70;;;;;;5064840;28;20457;-75
2022/05/09 12:09:58;;;;;;;12.20;7.20;;;24.60;11.00;;;;;;5072911;28;20404;-75
2022/05/09 12:12:49;;;;;;;11.45;7.50;;;24.80;10.10;;;;;;5058436;28;20474;-75
2022/05/09 12:15:15;;;;;;;11.52;7.35;;;24.90;10.10;;;;;;5062742;28;20910;-77
2022/05/09 12:18:07;;;;;;;16.43;7.87;;;24.90;9.40;;;;;;5069196;28;20425;-77
2022/05/09 12:20:36;;;;;;;13.80;7.30;;;24.80;10.30;;;;;;5074574;28;20406;-75
2022/05/09 12:23:09;;;;;;;9.10;6.93;;;25.00;9.80;;;;;;5062554;28;20396;-76
2022/05/09 12:25:41;;;;;;;10.82;7.30;;;25.10;9.20;;;;;;5066384;28;20464;-76
2022/05/09 12:28:46;;;;;;;13.60;8.50;;;25.00;9.40;;;;;;5067305;28;20393;-75
2022/05/09 12:31:26;;;;;;;10.57;8.07;;;25.00;9.80;;;;;;5056707;28;20429;-76
2022/05/09 12:33:53;;;;;;;10.80;8.18;;;25.00;8.40;;;;;;5062897;28;20397;-74
2022/05/09 12:36:28;;;;;;;10.35;7.50;;;24.90;9.80;;;;;;5063356;28;20415;-75
2022/05/09 12:39:01;;;;;;;10.95;7.07;;;25.00;9.40;;;;;;5049406;28;20470;-77
2022/05/09 12:41:32;;;;;;;12.30;7.93;;;25.20;10.20;;;;;;5054774;28;20388;-75
2022/05/09 12:44:11;;;;;;;11.50;7.30;;;25.10;9.50;;;;;;5058306;28;20432;-76
2022/05/09 12:46:45;;;;;;;12.23;7.82;;;25.20;9.30;;;;;;5057148;28;20389;-76
2022/05/09 12:49:15;;;;;;;11.00;7.32;;;25.20;8.90;;;;;;5056385;28;20392;-76
2022/05/09 12:51:45;;;;;;;9.77;7.53;;;25.20;9.90;;;;;;5057233;28;20397;-77
2022/05/09 12:54:14;;;;;;;11.48;7.68;;;25.40;9.00;;;;;;5057275;28;20393;-76
2022/05/09 12:56:48;;;;;;;11.73;7.85;;;25.40;8.30;;;;;;5053911;28;20786;-77
2022/05/09 12:59:16;;;;;;;12.30;8.20;;;25.40;8.60;;;;;;5052223;28;20401;-77
2022/05/09 13:01:44;;;;;;;10.70;8.35;;;25.40;8.70;;;;;;5059903;28;20393;-76
2022/05/09 13:04:25;;;;;;;14.57;7.40;;;25.60;9.00;;;;;;5049543;28;20760;-77
2022/05/09 13:06:54;;;;;;;9.98;6.75;;;25.70;8.40;;;;;;5039708;28;20427;-77
2022/05/09 13:09:23;;;;;;;10.90;6.70;;;26.00;7.40;;;;;;5038033;28;20395;-78
2022/05/09 13:11:53;;;;;;;16.40;6.28;;;25.90;6.40;;;;;;5038216;28;20846;-77
2022/05/09 13:14:31;;;;;;;10.85;6.40;;;26.00;7.80;;;;;;5040422;28;20383;-77